sensor_id;sensor_type;location;lat;lon;timestamp;P1;durP1;ratioP1;P2;durP2;ratioP2
3601;SDS011;1815;50.950;6.920;2024-02-04T00:03:42;2.30;;;1.37;;
3601;SDS011;1815;50.950;6.920;2024-02-04T00:06:07;3.57;;;1.23;;
3601;SDS011;1815;50.950;6.920;2024-02-04T00:08:33;1.67;;;1.20;;
3601;SDS011;1815;50.950;6.920;2024-02-04T00:10:59;1.60;;;1.10;;
3601;SDS011;1815;50.950;6.920;2024-02-04T00:13:24;1.80;;;1.20;;
3601;SDS011;1815;50.950;6.920;2024-02-04T00:15:50;1.70;;;1.30;;
3601;SDS011;1815;50.950;6.920;2024-02-04T00:18:19;2.58;;;1.50;;
3601;SDS011;1815;50.950;6.920;2024-02-04T00:20:45;2.77;;;2.00;;
3601;SDS011;1815;50.950;6.920;2024-02-04T00:23:10;3.37;;;2.70;;
3601;SDS011;1815;50.950;6.920;2024-02-04T00:25:36;3.10;;;2.57;;
3601;SDS011;1815;50.950;6.920;2024-02-04T00:28:02;3.40;;;3.03;;
3601;SDS011;1815;50.950;6.920;2024-02-04T00:30:28;4.00;;;3.50;;
3601;SDS011;1815;50.950;6.920;2024-02-04T00:32:53;4.13;;;3.40;;
3601;SDS011;1815;50.950;6.920;2024-02-04T00:35:19;4.47;;;3.63;;
3601;SDS011;1815;50.950;6.920;2024-02-04T00:37:45;4.00;;;3.57;;
3601;SDS011;1815;50.950;6.920;2024-02-04T00:40:10;3.77;;;3.13;;
3601;SDS011;1815;50.950;6.920;2024-02-04T00:42:37;4.13;;;3.70;;
3601;SDS011;1815;50.950;6.920;2024-02-04T00:45:02;3.77;;;2.90;;
3601;SDS011;1815;50.950;6.920;2024-02-04T00:47:28;3.10;;;2.80;;
3601;SDS011;1815;50.950;6.920;2024-02-04T00:49:54;2.97;;;2.50;;
3601;SDS011;1815;50.950;6.920;2024-02-04T00:52:20;2.10;;;1.90;;
3601;SDS011;1815;50.950;6.920;2024-02-04T00:54:45;2.23;;;2.00;;
3601;SDS011;1815;50.950;6.920;2024-02-04T00:57:11;1.83;;;1.13;;
3601;SDS011;1815;50.950;6.920;2024-02-04T00:59:37;3.00;;;2.00;;
3601;SDS011;1815;50.950;6.920;2024-02-04T01:02:02;3.93;;;2.47;;
3601;SDS011;1815;50.950;6.920;2024-02-04T01:04:28;2.20;;;1.67;;
3601;SDS011;1815;50.950;6.920;2024-02-04T01:06:54;1.97;;;1.37;;
3601;SDS011;1815;50.950;6.920;2024-02-04T01:09:19;1.60;;;1.20;;
3601;SDS011;1815;50.950;6.920;2024-02-04T01:11:45;1.70;;;1.27;;
3601;SDS011;1815;50.950;6.920;2024-02-04T01:14:11;1.63;;;1.20;;
3601;SDS011;1815;50.950;6.920;2024-02-04T01:16:37;1.70;;;1.20;;
3601;SDS011;1815;50.950;6.920;2024-02-04T01:19:02;1.57;;;1.10;;
3601;SDS011;1815;50.950;6.920;2024-02-04T01:21:28;1.57;;;1.00;;
3601;SDS011;1815;50.950;6.920;2024-02-04T01:23:54;1.60;;;1.00;;
3601;SDS011;1815;50.950;6.920;2024-02-04T01:26:20;1.40;;;0.80;;
3601;SDS011;1815;50.950;6.920;2024-02-04T01:28:45;1.60;;;0.90;;
3601;SDS011;1815;50.950;6.920;2024-02-04T01:31:11;2.50;;;1.10;;
3601;SDS011;1815;50.950;6.920;2024-02-04T01:33:37;3.53;;;1.90;;
3601;SDS011;1815;50.950;6.920;2024-02-04T01:36:03;2.40;;;1.70;;
3601;SDS011;1815;50.950;6.920;2024-02-04T01:38:28;3.10;;;1.50;;
3601;SDS011;1815;50.950;6.920;2024-02-04T01:40:54;1.40;;;0.80;;
3601;SDS011;1815;50.950;6.920;2024-02-04T01:43:20;1.70;;;1.00;;
3601;SDS011;1815;50.950;6.920;2024-02-04T01:45:46;2.20;;;0.85;;
3601;SDS011;1815;50.950;6.920;2024-02-04T01:48:13;6.93;;;1.35;;
3601;SDS011;1815;50.950;6.920;2024-02-04T01:50:41;1.93;;;1.30;;
3601;SDS011;1815;50.950;6.920;2024-02-04T01:53:07;2.35;;;1.40;;
3601;SDS011;1815;50.950;6.920;2024-02-04T01:55:33;1.38;;;0.90;;
3601;SDS011;1815;50.950;6.920;2024-02-04T01:57:59;1.70;;;0.93;;
3601;SDS011;1815;50.950;6.920;2024-02-04T02:00:26;1.40;;;0.90;;
3601;SDS011;1815;50.950;6.920;2024-02-04T02:02:52;1.40;;;0.80;;
3601;SDS011;1815;50.950;6.920;2024-02-04T02:05:18;1.40;;;0.90;;
3601;SDS011;1815;50.950;6.920;2024-02-04T02:07:44;2.50;;;1.57;;
3601;SDS011;1815;50.950;6.920;2024-02-04T02:10:13;2.22;;;0.80;;
3601;SDS011;1815;50.950;6.920;2024-02-04T02:13:00;1.50;;;0.80;;
3601;SDS011;1815;50.950;6.920;2024-02-04T02:15:31;1.60;;;0.80;;
3601;SDS011;1815;50.950;6.920;2024-02-04T02:18:02;1.33;;;0.83;;
3601;SDS011;1815;50.950;6.920;2024-02-04T02:24:47;1.80;;;1.07;;
3601;SDS011;1815;50.950;6.920;2024-02-04T02:26:48;2.63;;;1.05;;
3601;SDS011;1815;50.950;6.920;2024-02-04T02:29:15;1.60;;;1.10;;
3601;SDS011;1815;50.950;6.920;2024-02-04T02:31:41;1.40;;;0.97;;
3601;SDS011;1815;50.950;6.920;2024-02-04T02:34:08;2.90;;;0.90;;
3601;SDS011;1815;50.950;6.920;2024-02-04T02:36:43;1.50;;;0.90;;
3601;SDS011;1815;50.950;6.920;2024-02-04T02:39:23;1.60;;;1.00;;
3601;SDS011;1815;50.950;6.920;2024-02-04T02:41:54;3.85;;;0.98;;
3601;SDS011;1815;50.950;6.920;2024-02-04T02:44:23;1.50;;;1.00;;
3601;SDS011;1815;50.950;6.920;2024-02-04T02:46:51;4.33;;;1.10;;
3601;SDS011;1815;50.950;6.920;2024-02-04T02:49:17;1.53;;;0.90;;
3601;SDS011;1815;50.950;6.920;2024-02-04T02:51:43;1.70;;;0.90;;
3601;SDS011;1815;50.950;6.920;2024-02-04T02:54:08;1.70;;;0.80;;
3601;SDS011;1815;50.950;6.920;2024-02-04T02:56:34;3.47;;;1.07;;
3601;SDS011;1815;50.950;6.920;2024-02-04T02:59:00;1.80;;;0.87;;
3601;SDS011;1815;50.950;6.920;2024-02-04T03:01:26;1.83;;;1.10;;
3601;SDS011;1815;50.950;6.920;2024-02-04T03:03:52;1.90;;;1.07;;
3601;SDS011;1815;50.950;6.920;2024-02-04T03:06:18;1.40;;;0.83;;
3601;SDS011;1815;50.950;6.920;2024-02-04T03:08:43;3.63;;;1.13;;
3601;SDS011;1815;50.950;6.920;2024-02-04T03:11:09;1.70;;;1.20;;
3601;SDS011;1815;50.950;6.920;2024-02-04T03:13:37;1.67;;;1.00;;
3601;SDS011;1815;50.950;6.920;2024-02-04T03:16:04;1.58;;;1.08;;
3601;SDS011;1815;50.950;6.920;2024-02-04T03:18:34;1.53;;;1.07;;
3601;SDS011;1815;50.950;6.920;2024-02-04T03:21:00;1.50;;;1.00;;
3601;SDS011;1815;50.950;6.920;2024-02-04T03:23:26;1.60;;;0.90;;
3601;SDS011;1815;50.950;6.920;2024-02-04T03:25:51;1.93;;;1.37;;
3601;SDS011;1815;50.950;6.920;2024-02-04T03:28:17;2.07;;;1.20;;
3601;SDS011;1815;50.950;6.920;2024-02-04T03:30:44;1.75;;;1.08;;
3601;SDS011;1815;50.950;6.920;2024-02-04T03:33:10;1.90;;;1.20;;
3601;SDS011;1815;50.950;6.920;2024-02-04T03:35:35;2.97;;;1.50;;
3601;SDS011;1815;50.950;6.920;2024-02-04T03:38:03;1.60;;;1.00;;
3601;SDS011;1815;50.950;6.920;2024-02-04T03:40:28;2.23;;;1.60;;
3601;SDS011;1815;50.950;6.920;2024-02-04T03:42:55;1.90;;;1.27;;
3601;SDS011;1815;50.950;6.920;2024-02-04T03:45:20;1.47;;;1.13;;
3601;SDS011;1815;50.950;6.920;2024-02-04T03:47:46;2.30;;;1.67;;
3601;SDS011;1815;50.950;6.920;2024-02-04T03:50:12;3.10;;;1.63;;
3601;SDS011;1815;50.950;6.920;2024-02-04T03:52:37;2.00;;;1.50;;
3601;SDS011;1815;50.950;6.920;2024-02-04T03:55:04;2.80;;;1.80;;
3601;SDS011;1815;50.950;6.920;2024-02-04T03:57:30;4.18;;;2.78;;
3601;SDS011;1815;50.950;6.920;2024-02-04T03:59:58;2.13;;;1.53;;
3601;SDS011;1815;50.950;6.920;2024-02-04T04:02:23;2.17;;;1.67;;
3601;SDS011;1815;50.950;6.920;2024-02-04T04:04:49;1.70;;;1.50;;
3601;SDS011;1815;50.950;6.920;2024-02-04T04:07:15;1.97;;;1.53;;
3601;SDS011;1815;50.950;6.920;2024-02-04T04:09:40;2.80;;;1.87;;
3601;SDS011;1815;50.950;6.920;2024-02-04T04:12:06;4.27;;;1.97;;
3601;SDS011;1815;50.950;6.920;2024-02-04T04:14:32;2.57;;;1.60;;
3601;SDS011;1815;50.950;6.920;2024-02-04T04:16:57;3.07;;;1.70;;
3601;SDS011;1815;50.950;6.920;2024-02-04T04:19:23;2.10;;;1.60;;
3601;SDS011;1815;50.950;6.920;2024-02-04T04:21:49;2.57;;;1.87;;
3601;SDS011;1815;50.950;6.920;2024-02-04T04:24:15;3.47;;;1.50;;
3601;SDS011;1815;50.950;6.920;2024-02-04T04:26:44;2.33;;;1.55;;
3601;SDS011;1815;50.950;6.920;2024-02-04T04:29:10;2.47;;;1.47;;
3601;SDS011;1815;50.950;6.920;2024-02-04T04:31:36;1.80;;;1.50;;
3601;SDS011;1815;50.950;6.920;2024-02-04T04:34:01;1.90;;;1.40;;
3601;SDS011;1815;50.950;6.920;2024-02-04T04:36:27;1.67;;;1.37;;
3601;SDS011;1815;50.950;6.920;2024-02-04T04:38:53;1.97;;;1.43;;
3601;SDS011;1815;50.950;6.920;2024-02-04T04:41:18;2.73;;;1.73;;
3601;SDS011;1815;50.950;6.920;2024-02-04T04:43:44;1.90;;;1.50;;
3601;SDS011;1815;50.950;6.920;2024-02-04T04:46:10;2.50;;;1.50;;
3601;SDS011;1815;50.950;6.920;2024-02-04T04:48:35;3.00;;;1.40;;
3601;SDS011;1815;50.950;6.920;2024-02-04T04:51:01;2.03;;;1.60;;
3601;SDS011;1815;50.950;6.920;2024-02-04T04:53:27;3.50;;;2.27;;
3601;SDS011;1815;50.950;6.920;2024-02-04T04:55:52;1.97;;;1.77;;
3601;SDS011;1815;50.950;6.920;2024-02-04T04:58:18;2.40;;;1.77;;
3601;SDS011;1815;50.950;6.920;2024-02-04T05:00:44;2.20;;;1.80;;
3601;SDS011;1815;50.950;6.920;2024-02-04T05:03:09;2.80;;;2.07;;
3601;SDS011;1815;50.950;6.920;2024-02-04T05:05:35;3.03;;;1.73;;
3601;SDS011;1815;50.950;6.920;2024-02-04T05:08:01;3.47;;;1.80;;
3601;SDS011;1815;50.950;6.920;2024-02-04T05:10:27;2.60;;;2.30;;
3601;SDS011;1815;50.950;6.920;2024-02-04T05:12:53;2.33;;;2.00;;
3601;SDS011;1815;50.950;6.920;2024-02-04T05:15:18;3.17;;;2.30;;
3601;SDS011;1815;50.950;6.920;2024-02-04T05:17:44;2.80;;;2.50;;
3601;SDS011;1815;50.950;6.920;2024-02-04T05:20:10;4.60;;;2.37;;
3601;SDS011;1815;50.950;6.920;2024-02-04T05:22:36;4.27;;;3.00;;
3601;SDS011;1815;50.950;6.920;2024-02-04T05:25:02;3.17;;;2.20;;
3601;SDS011;1815;50.950;6.920;2024-02-04T05:27:29;3.27;;;2.40;;
3601;SDS011;1815;50.950;6.920;2024-02-04T05:29:55;3.70;;;2.27;;
3601;SDS011;1815;50.950;6.920;2024-02-04T05:32:21;2.63;;;2.13;;
3601;SDS011;1815;50.950;6.920;2024-02-04T05:34:47;1.90;;;1.67;;
3601;SDS011;1815;50.950;6.920;2024-02-04T05:37:13;2.63;;;1.93;;
3601;SDS011;1815;50.950;6.920;2024-02-04T05:39:39;2.13;;;1.93;;
3601;SDS011;1815;50.950;6.920;2024-02-04T05:42:04;4.97;;;2.10;;
3601;SDS011;1815;50.950;6.920;2024-02-04T05:44:30;3.10;;;2.80;;
3601;SDS011;1815;50.950;6.920;2024-02-04T05:46:56;2.80;;;2.23;;
3601;SDS011;1815;50.950;6.920;2024-02-04T05:49:21;2.53;;;2.20;;
3601;SDS011;1815;50.950;6.920;2024-02-04T05:51:47;4.63;;;2.53;;
3601;SDS011;1815;50.950;6.920;2024-02-04T05:54:13;2.47;;;2.07;;
3601;SDS011;1815;50.950;6.920;2024-02-04T05:56:38;2.70;;;2.43;;
3601;SDS011;1815;50.950;6.920;2024-02-04T05:59:04;4.23;;;2.43;;
3601;SDS011;1815;50.950;6.920;2024-02-04T06:01:30;2.47;;;2.27;;
3601;SDS011;1815;50.950;6.920;2024-02-04T06:03:56;3.17;;;2.80;;
3601;SDS011;1815;50.950;6.920;2024-02-04T06:06:22;2.83;;;2.37;;
3601;SDS011;1815;50.950;6.920;2024-02-04T06:08:48;3.70;;;2.90;;
3601;SDS011;1815;50.950;6.920;2024-02-04T06:11:14;3.20;;;2.40;;
3601;SDS011;1815;50.950;6.920;2024-02-04T06:13:40;5.03;;;2.53;;
3601;SDS011;1815;50.950;6.920;2024-02-04T06:16:07;2.83;;;2.47;;
3601;SDS011;1815;50.950;6.920;2024-02-04T06:18:34;2.87;;;2.13;;
3601;SDS011;1815;50.950;6.920;2024-02-04T06:21:02;3.50;;;2.40;;
3601;SDS011;1815;50.950;6.920;2024-02-04T06:23:28;3.63;;;2.43;;
3601;SDS011;1815;50.950;6.920;2024-02-04T06:25:54;2.60;;;2.40;;
3601;SDS011;1815;50.950;6.920;2024-02-04T06:28:20;3.97;;;2.67;;
3601;SDS011;1815;50.950;6.920;2024-02-04T06:30:46;2.63;;;2.33;;
3601;SDS011;1815;50.950;6.920;2024-02-04T06:33:11;3.43;;;2.30;;
3601;SDS011;1815;50.950;6.920;2024-02-04T06:35:37;3.47;;;2.40;;
3601;SDS011;1815;50.950;6.920;2024-02-04T06:38:03;2.27;;;2.07;;
3601;SDS011;1815;50.950;6.920;2024-02-04T06:40:28;2.80;;;2.30;;
3601;SDS011;1815;50.950;6.920;2024-02-04T06:42:54;3.27;;;2.00;;
3601;SDS011;1815;50.950;6.920;2024-02-04T06:45:20;1.83;;;1.40;;
3601;SDS011;1815;50.950;6.920;2024-02-04T06:47:45;2.60;;;1.57;;
3601;SDS011;1815;50.950;6.920;2024-02-04T06:50:11;1.80;;;1.30;;
3601;SDS011;1815;50.950;6.920;2024-02-04T06:52:41;2.10;;;1.20;;
3601;SDS011;1815;50.950;6.920;2024-02-04T06:55:07;1.60;;;0.90;;
3601;SDS011;1815;50.950;6.920;2024-02-04T06:57:34;1.40;;;0.90;;
3601;SDS011;1815;50.950;6.920;2024-02-04T06:59:59;1.80;;;0.90;;
3601;SDS011;1815;50.950;6.920;2024-02-04T07:02:25;2.30;;;0.80;;
3601;SDS011;1815;50.950;6.920;2024-02-04T07:04:52;1.93;;;0.90;;
3601;SDS011;1815;50.950;6.920;2024-02-04T07:07:18;1.40;;;0.70;;
3601;SDS011;1815;50.950;6.920;2024-02-04T07:09:43;1.87;;;0.80;;
3601;SDS011;1815;50.950;6.920;2024-02-04T07:12:09;1.50;;;0.70;;
3601;SDS011;1815;50.950;6.920;2024-02-04T07:14:35;1.50;;;0.70;;
3601;SDS011;1815;50.950;6.920;2024-02-04T07:17:00;2.40;;;0.80;;
3601;SDS011;1815;50.950;6.920;2024-02-04T07:19:26;1.20;;;0.57;;
3601;SDS011;1815;50.950;6.920;2024-02-04T07:21:52;1.23;;;0.60;;
3601;SDS011;1815;50.950;6.920;2024-02-04T07:24:17;1.30;;;0.90;;
3601;SDS011;1815;50.950;6.920;2024-02-04T07:26:44;1.40;;;0.80;;
3601;SDS011;1815;50.950;6.920;2024-02-04T07:29:12;1.30;;;0.70;;
3601;SDS011;1815;50.950;6.920;2024-02-04T07:31:38;1.10;;;0.60;;
3601;SDS011;1815;50.950;6.920;2024-02-04T07:34:04;1.23;;;0.60;;
3601;SDS011;1815;50.950;6.920;2024-02-04T07:36:30;1.47;;;0.70;;
3601;SDS011;1815;50.950;6.920;2024-02-04T07:38:56;1.70;;;0.70;;
3601;SDS011;1815;50.950;6.920;2024-02-04T07:41:22;1.60;;;0.70;;
3601;SDS011;1815;50.950;6.920;2024-02-04T07:43:47;1.30;;;0.70;;
3601;SDS011;1815;50.950;6.920;2024-02-04T07:46:14;2.27;;;0.80;;
3601;SDS011;1815;50.950;6.920;2024-02-04T07:48:39;2.17;;;0.70;;
3601;SDS011;1815;50.950;6.920;2024-02-04T07:51:06;1.50;;;0.70;;
3601;SDS011;1815;50.950;6.920;2024-02-04T07:53:33;1.67;;;0.68;;
3601;SDS011;1815;50.950;6.920;2024-02-04T07:55:59;1.23;;;0.70;;
3601;SDS011;1815;50.950;6.920;2024-02-04T07:58:25;1.40;;;0.60;;
3601;SDS011;1815;50.950;6.920;2024-02-04T08:00:52;1.20;;;0.60;;
3601;SDS011;1815;50.950;6.920;2024-02-04T08:03:18;1.87;;;0.50;;
3601;SDS011;1815;50.950;6.920;2024-02-04T08:05:43;1.20;;;0.60;;
3601;SDS011;1815;50.950;6.920;2024-02-04T08:08:09;1.83;;;0.60;;
3601;SDS011;1815;50.950;6.920;2024-02-04T08:10:35;1.33;;;0.60;;
3601;SDS011;1815;50.950;6.920;2024-02-04T08:13:00;1.57;;;0.70;;
3601;SDS011;1815;50.950;6.920;2024-02-04T08:15:26;2.13;;;0.70;;
3601;SDS011;1815;50.950;6.920;2024-02-04T08:17:52;2.23;;;1.20;;
3601;SDS011;1815;50.950;6.920;2024-02-04T08:20:18;1.50;;;0.70;;
3601;SDS011;1815;50.950;6.920;2024-02-04T08:22:43;1.30;;;0.63;;
3601;SDS011;1815;50.950;6.920;2024-02-04T08:25:09;1.30;;;0.70;;
3601;SDS011;1815;50.950;6.920;2024-02-04T08:27:37;1.47;;;0.90;;
3601;SDS011;1815;50.950;6.920;2024-02-04T08:30:03;2.27;;;1.47;;
3601;SDS011;1815;50.950;6.920;2024-02-04T08:32:30;2.10;;;1.23;;
3601;SDS011;1815;50.950;6.920;2024-02-04T08:34:56;3.20;;;1.93;;
3601;SDS011;1815;50.950;6.920;2024-02-04T08:37:21;3.37;;;1.40;;
3601;SDS011;1815;50.950;6.920;2024-02-04T08:39:47;1.80;;;1.00;;
3601;SDS011;1815;50.950;6.920;2024-02-04T08:42:13;2.30;;;1.20;;
3601;SDS011;1815;50.950;6.920;2024-02-04T08:44:40;2.10;;;1.20;;
3601;SDS011;1815;50.950;6.920;2024-02-04T08:47:06;4.30;;;1.23;;
3601;SDS011;1815;50.950;6.920;2024-02-04T08:49:35;1.93;;;1.00;;
3601;SDS011;1815;50.950;6.920;2024-02-04T08:52:02;5.93;;;0.90;;
3601;SDS011;1815;50.950;6.920;2024-02-04T08:54:28;5.33;;;3.07;;
3601;SDS011;1815;50.950;6.920;2024-02-04T08:56:54;3.77;;;2.60;;
3601;SDS011;1815;50.950;6.920;2024-02-04T08:59:19;2.43;;;1.67;;
3601;SDS011;1815;50.950;6.920;2024-02-04T09:01:45;1.43;;;0.90;;
3601;SDS011;1815;50.950;6.920;2024-02-04T09:04:11;1.70;;;0.70;;
3601;SDS011;1815;50.950;6.920;2024-02-04T09:06:37;1.30;;;0.70;;
3601;SDS011;1815;50.950;6.920;2024-02-04T09:09:02;1.57;;;0.70;;
3601;SDS011;1815;50.950;6.920;2024-02-04T09:11:28;1.50;;;0.60;;
3601;SDS011;1815;50.950;6.920;2024-02-04T09:13:54;1.20;;;0.63;;
3601;SDS011;1815;50.950;6.920;2024-02-04T09:16:20;1.63;;;0.80;;
3601;SDS011;1815;50.950;6.920;2024-02-04T09:18:45;1.10;;;0.60;;
3601;SDS011;1815;50.950;6.920;2024-02-04T09:21:12;1.30;;;0.60;;
3601;SDS011;1815;50.950;6.920;2024-02-04T09:23:39;1.20;;;0.50;;
3601;SDS011;1815;50.950;6.920;2024-02-04T09:26:11;1.30;;;0.60;;
3601;SDS011;1815;50.950;6.920;2024-02-04T09:28:37;1.43;;;0.50;;
3601;SDS011;1815;50.950;6.920;2024-02-04T09:31:03;1.50;;;0.50;;
3601;SDS011;1815;50.950;6.920;2024-02-04T09:33:29;1.20;;;0.50;;
3601;SDS011;1815;50.950;6.920;2024-02-04T09:35:54;1.20;;;0.60;;
3601;SDS011;1815;50.950;6.920;2024-02-04T09:38:20;1.13;;;0.50;;
3601;SDS011;1815;50.950;6.920;2024-02-04T09:40:46;1.17;;;0.50;;
3601;SDS011;1815;50.950;6.920;2024-02-04T09:43:12;1.60;;;0.60;;
3601;SDS011;1815;50.950;6.920;2024-02-04T09:45:38;1.90;;;0.50;;
3601;SDS011;1815;50.950;6.920;2024-02-04T09:48:04;1.30;;;0.60;;
3601;SDS011;1815;50.950;6.920;2024-02-04T09:50:33;1.67;;;0.60;;
3601;SDS011;1815;50.950;6.920;2024-02-04T09:56:46;1.30;;;0.70;;
3601;SDS011;1815;50.950;6.920;2024-02-04T09:59:13;1.50;;;0.70;;
3601;SDS011;1815;50.950;6.920;2024-02-04T10:01:38;1.40;;;0.70;;
3601;SDS011;1815;50.950;6.920;2024-02-04T10:04:05;3.10;;;1.63;;
3601;SDS011;1815;50.950;6.920;2024-02-04T10:06:31;3.40;;;1.63;;
3601;SDS011;1815;50.950;6.920;2024-02-04T10:08:57;4.97;;;0.80;;
3601;SDS011;1815;50.950;6.920;2024-02-04T10:11:23;1.60;;;0.80;;
3601;SDS011;1815;50.950;6.920;2024-02-04T10:13:49;2.40;;;0.80;;
3601;SDS011;1815;50.950;6.920;2024-02-04T10:16:15;1.50;;;0.70;;
3601;SDS011;1815;50.950;6.920;2024-02-04T10:18:45;1.40;;;0.80;;
3601;SDS011;1815;50.950;6.920;2024-02-04T10:21:18;2.63;;;0.80;;
3601;SDS011;1815;50.950;6.920;2024-02-04T10:23:45;1.40;;;0.70;;
3601;SDS011;1815;50.950;6.920;2024-02-04T10:26:11;2.43;;;0.70;;
3601;SDS011;1815;50.950;6.920;2024-02-04T10:28:38;1.47;;;0.70;;
3601;SDS011;1815;50.950;6.920;2024-02-04T10:31:04;2.03;;;0.80;;
3601;SDS011;1815;50.950;6.920;2024-02-04T10:33:30;2.43;;;0.80;;
3601;SDS011;1815;50.950;6.920;2024-02-04T10:35:56;2.67;;;0.80;;
3601;SDS011;1815;50.950;6.920;2024-02-04T10:38:22;1.50;;;0.70;;
3601;SDS011;1815;50.950;6.920;2024-02-04T10:40:50;2.00;;;0.90;;
3601;SDS011;1815;50.950;6.920;2024-02-04T10:43:18;1.70;;;0.87;;
3601;SDS011;1815;50.950;6.920;2024-02-04T10:45:45;1.67;;;0.97;;
3601;SDS011;1815;50.950;6.920;2024-02-04T10:48:12;1.90;;;1.00;;
3601;SDS011;1815;50.950;6.920;2024-02-04T10:50:40;1.50;;;0.80;;
3601;SDS011;1815;50.950;6.920;2024-02-04T10:53:08;4.33;;;0.90;;
3601;SDS011;1815;50.950;6.920;2024-02-04T10:55:40;1.67;;;0.80;;
3601;SDS011;1815;50.950;6.920;2024-02-04T10:58:07;1.77;;;1.00;;
3601;SDS011;1815;50.950;6.920;2024-02-04T11:00:36;1.67;;;0.87;;
3601;SDS011;1815;50.950;6.920;2024-02-04T11:03:02;2.10;;;1.00;;
3601;SDS011;1815;50.950;6.920;2024-02-04T11:05:29;1.60;;;0.80;;
3601;SDS011;1815;50.950;6.920;2024-02-04T11:07:57;1.50;;;0.70;;
3601;SDS011;1815;50.950;6.920;2024-02-04T11:10:24;1.30;;;0.60;;
3601;SDS011;1815;50.950;6.920;2024-02-04T11:12:52;1.60;;;0.63;;
3601;SDS011;1815;50.950;6.920;2024-02-04T11:15:20;1.53;;;0.73;;
3601;SDS011;1815;50.950;6.920;2024-02-04T11:20:44;1.83;;;1.03;;
3601;SDS011;1815;50.950;6.920;2024-02-04T11:26:02;5.00;;;2.23;;
3601;SDS011;1815;50.950;6.920;2024-02-04T11:28:29;2.27;;;1.00;;
3601;SDS011;1815;50.950;6.920;2024-02-04T11:30:56;1.80;;;0.80;;
3601;SDS011;1815;50.950;6.920;2024-02-04T11:33:22;1.53;;;0.90;;
3601;SDS011;1815;50.950;6.920;2024-02-04T11:36:12;2.43;;;1.20;;
3601;SDS011;1815;50.950;6.920;2024-02-04T11:38:38;4.03;;;0.90;;
3601;SDS011;1815;50.950;6.920;2024-02-04T11:41:04;2.07;;;1.10;;
3601;SDS011;1815;50.950;6.920;2024-02-04T11:43:34;2.47;;;0.90;;
3601;SDS011;1815;50.950;6.920;2024-02-04T11:46:04;2.23;;;1.10;;
3601;SDS011;1815;50.950;6.920;2024-02-04T11:48:30;3.07;;;2.10;;
3601;SDS011;1815;50.950;6.920;2024-02-04T11:50:58;2.50;;;1.70;;
3601;SDS011;1815;50.950;6.920;2024-02-04T11:53:26;2.47;;;1.10;;
3601;SDS011;1815;50.950;6.920;2024-02-04T11:55:57;2.00;;;1.23;;
3601;SDS011;1815;50.950;6.920;2024-02-04T11:58:27;2.33;;;1.50;;
3601;SDS011;1815;50.950;6.920;2024-02-04T12:03:28;2.53;;;1.60;;
3601;SDS011;1815;50.950;6.920;2024-02-04T12:05:55;1.60;;;1.07;;
3601;SDS011;1815;50.950;6.920;2024-02-04T12:08:22;1.73;;;0.83;;
3601;SDS011;1815;50.950;6.920;2024-02-04T12:10:49;1.40;;;0.80;;
3601;SDS011;1815;50.950;6.920;2024-02-04T12:13:15;2.60;;;1.00;;
3601;SDS011;1815;50.950;6.920;2024-02-04T12:15:41;2.63;;;0.90;;
3601;SDS011;1815;50.950;6.920;2024-02-04T12:18:08;1.30;;;0.63;;
3601;SDS011;1815;50.950;6.920;2024-02-04T12:20:35;2.00;;;1.20;;
3601;SDS011;1815;50.950;6.920;2024-02-04T12:23:02;3.13;;;1.40;;
3601;SDS011;1815;50.950;6.920;2024-02-04T12:25:28;1.77;;;1.07;;
3601;SDS011;1815;50.950;6.920;2024-02-04T12:27:59;1.37;;;0.70;;
3601;SDS011;1815;50.950;6.920;2024-02-04T12:30:28;1.50;;;0.87;;
3601;SDS011;1815;50.950;6.920;2024-02-04T12:32:57;1.93;;;0.80;;
3601;SDS011;1815;50.950;6.920;2024-02-04T12:35:24;2.67;;;1.00;;
3601;SDS011;1815;50.950;6.920;2024-02-04T12:37:51;2.33;;;0.70;;
3601;SDS011;1815;50.950;6.920;2024-02-04T12:40:24;3.67;;;0.80;;
3601;SDS011;1815;50.950;6.920;2024-02-04T12:42:55;1.60;;;0.77;;
3601;SDS011;1815;50.950;6.920;2024-02-04T12:45:25;2.00;;;0.90;;
3601;SDS011;1815;50.950;6.920;2024-02-04T12:47:52;3.00;;;1.70;;
3601;SDS011;1815;50.950;6.920;2024-02-04T12:50:19;4.20;;;2.10;;
3601;SDS011;1815;50.950;6.920;2024-02-04T12:52:46;2.33;;;1.50;;
3601;SDS011;1815;50.950;6.920;2024-02-04T12:55:19;2.17;;;0.87;;
3601;SDS011;1815;50.950;6.920;2024-02-04T12:57:49;2.27;;;0.90;;
3601;SDS011;1815;50.950;6.920;2024-02-04T13:00:18;1.93;;;0.50;;
3601;SDS011;1815;50.950;6.920;2024-02-04T13:02:44;1.20;;;0.60;;
3601;SDS011;1815;50.950;6.920;2024-02-04T13:05:10;2.90;;;0.70;;
3601;SDS011;1815;50.950;6.920;2024-02-04T13:07:46;1.30;;;0.60;;
3601;SDS011;1815;50.950;6.920;2024-02-04T13:10:15;1.30;;;0.63;;
3601;SDS011;1815;50.950;6.920;2024-02-04T13:12:42;1.47;;;0.70;;
3601;SDS011;1815;50.950;6.920;2024-02-04T13:15:09;1.70;;;0.90;;
3601;SDS011;1815;50.950;6.920;2024-02-04T13:17:34;1.70;;;0.80;;
3601;SDS011;1815;50.950;6.920;2024-02-04T13:20:00;2.13;;;1.10;;
3601;SDS011;1815;50.950;6.920;2024-02-04T13:22:26;2.27;;;1.13;;
3601;SDS011;1815;50.950;6.920;2024-02-04T13:24:51;2.97;;;1.03;;
3601;SDS011;1815;50.950;6.920;2024-02-04T13:27:17;1.40;;;0.80;;
3601;SDS011;1815;50.950;6.920;2024-02-04T13:29:43;1.60;;;0.70;;
3601;SDS011;1815;50.950;6.920;2024-02-04T13:32:08;1.60;;;0.70;;
3601;SDS011;1815;50.950;6.920;2024-02-04T13:34:34;1.40;;;0.70;;
3601;SDS011;1815;50.950;6.920;2024-02-04T13:37:00;1.30;;;0.70;;
3601;SDS011;1815;50.950;6.920;2024-02-04T13:39:26;1.30;;;0.60;;
3601;SDS011;1815;50.950;6.920;2024-02-04T13:41:53;1.27;;;0.60;;
3601;SDS011;1815;50.950;6.920;2024-02-04T13:44:18;1.60;;;0.77;;
3601;SDS011;1815;50.950;6.920;2024-02-04T13:46:44;2.10;;;0.80;;
3601;SDS011;1815;50.950;6.920;2024-02-04T13:49:10;1.83;;;0.90;;
3601;SDS011;1815;50.950;6.920;2024-02-04T13:51:37;1.87;;;0.80;;
3601;SDS011;1815;50.950;6.920;2024-02-04T13:54:02;2.40;;;1.43;;
3601;SDS011;1815;50.950;6.920;2024-02-04T13:56:29;2.90;;;1.00;;
3601;SDS011;1815;50.950;6.920;2024-02-04T13:58:55;1.30;;;0.70;;
3601;SDS011;1815;50.950;6.920;2024-02-04T14:01:21;4.33;;;2.17;;
3601;SDS011;1815;50.950;6.920;2024-02-04T14:03:48;2.30;;;1.60;;
3601;SDS011;1815;50.950;6.920;2024-02-04T14:06:14;1.67;;;0.83;;
3601;SDS011;1815;50.950;6.920;2024-02-04T14:08:40;1.73;;;0.70;;
3601;SDS011;1815;50.950;6.920;2024-02-04T14:11:06;1.40;;;0.60;;
3601;SDS011;1815;50.950;6.920;2024-02-04T14:13:31;1.60;;;0.93;;
3601;SDS011;1815;50.950;6.920;2024-02-04T14:15:58;1.77;;;0.80;;
3601;SDS011;1815;50.950;6.920;2024-02-04T14:18:23;2.20;;;1.00;;
3601;SDS011;1815;50.950;6.920;2024-02-04T14:20:50;2.23;;;0.90;;
3601;SDS011;1815;50.950;6.920;2024-02-04T14:23:15;1.97;;;1.20;;
3601;SDS011;1815;50.950;6.920;2024-02-04T14:25:41;1.97;;;1.13;;
3601;SDS011;1815;50.950;6.920;2024-02-04T14:28:07;1.40;;;0.73;;
3601;SDS011;1815;50.950;6.920;2024-02-04T14:30:33;1.80;;;0.60;;
3601;SDS011;1815;50.950;6.920;2024-02-04T14:32:58;1.40;;;0.70;;
3601;SDS011;1815;50.950;6.920;2024-02-04T14:35:24;1.40;;;0.70;;
3601;SDS011;1815;50.950;6.920;2024-02-04T14:37:50;1.30;;;0.60;;
3601;SDS011;1815;50.950;6.920;2024-02-04T14:40:16;1.47;;;0.70;;
3601;SDS011;1815;50.950;6.920;2024-02-04T14:42:41;1.30;;;0.80;;
3601;SDS011;1815;50.950;6.920;2024-02-04T14:45:07;2.50;;;1.07;;
3601;SDS011;1815;50.950;6.920;2024-02-04T14:47:34;1.70;;;0.80;;
3601;SDS011;1815;50.950;6.920;2024-02-04T14:49:59;1.80;;;0.83;;
3601;SDS011;1815;50.950;6.920;2024-02-04T14:52:26;1.50;;;0.70;;
3601;SDS011;1815;50.950;6.920;2024-02-04T14:54:51;2.17;;;0.70;;
3601;SDS011;1815;50.950;6.920;2024-02-04T14:57:17;1.57;;;1.17;;
3601;SDS011;1815;50.950;6.920;2024-02-04T14:59:43;2.53;;;1.47;;
3601;SDS011;1815;50.950;6.920;2024-02-04T15:02:09;2.83;;;1.40;;
3601;SDS011;1815;50.950;6.920;2024-02-04T15:04:35;2.43;;;1.77;;
3601;SDS011;1815;50.950;6.920;2024-02-04T15:07:00;2.43;;;1.57;;
3601;SDS011;1815;50.950;6.920;2024-02-04T15:09:32;2.13;;;0.87;;
3601;SDS011;1815;50.950;6.920;2024-02-04T15:11:58;1.60;;;0.90;;
3601;SDS011;1815;50.950;6.920;2024-02-04T15:14:26;1.80;;;1.00;;
3601;SDS011;1815;50.950;6.920;2024-02-04T15:16:53;2.30;;;1.40;;
3601;SDS011;1815;50.950;6.920;2024-02-04T15:19:24;4.20;;;3.03;;
3601;SDS011;1815;50.950;6.920;2024-02-04T15:21:51;5.00;;;2.03;;
3601;SDS011;1815;50.950;6.920;2024-02-04T15:24:17;2.70;;;1.30;;
3601;SDS011;1815;50.950;6.920;2024-02-04T15:26:43;3.07;;;1.87;;
3601;SDS011;1815;50.950;6.920;2024-02-04T15:29:13;3.70;;;1.83;;